createdAt,value
2023-01-13T00:01:29.067Z,101655.56
2023-01-13T00:03:57.227Z,101659.97
2023-01-13T00:06:26.124Z,101660.84
2023-01-13T00:08:54.172Z,101665.28
2023-01-13T00:11:21.750Z,101653.78
2023-01-13T00:13:48.742Z,101667.00
2023-01-13T00:16:18.864Z,101658.19
2023-01-13T00:18:46.335Z,101644.09
2023-01-13T00:21:19.929Z,101649.44
2023-01-13T00:23:47.919Z,101651.22
2023-01-13T00:26:24.118Z,101638.91
2023-01-13T00:28:51.345Z,101638.94
2023-01-13T00:31:20.851Z,101640.69
2023-01-13T00:33:51.610Z,101637.22
2023-01-13T00:36:20.844Z,101638.13
2023-01-13T00:38:48.478Z,101632.81
2023-01-13T00:41:19.486Z,101618.66
2023-01-13T00:43:47.422Z,101603.69
2023-01-13T00:46:17.814Z,101601.03
2023-01-13T00:48:45.974Z,101608.97
2023-01-13T00:51:17.171Z,101608.06
2023-01-13T00:53:47.472Z,101603.63
2023-01-13T00:56:41.166Z,101598.31
2023-01-13T00:59:12.552Z,101601.91
2023-01-13T01:01:41.238Z,101596.63
2023-01-13T01:04:08.470Z,101594.94
2023-01-13T01:06:35.575Z,101585.22
2023-01-13T01:09:03.604Z,101583.50
2023-01-13T01:11:33.281Z,101587.94
2023-01-13T01:14:03.275Z,101588.00
2023-01-13T01:16:33.004Z,101575.66
2023-01-13T01:19:01.113Z,101578.34
2023-01-13T01:21:29.082Z,101580.97
2023-01-13T01:23:59.349Z,101580.13
2023-01-13T01:26:28.602Z,101580.19
2023-01-13T01:28:55.565Z,101578.44
2023-01-13T01:31:31.990Z,101576.75
2023-01-13T01:34:00.685Z,101575.94
2023-01-13T01:36:30.299Z,101572.41
2023-01-13T01:38:59.391Z,101569.84
2023-01-13T01:41:31.817Z,101569.03
2023-01-13T01:44:08.468Z,101576.13
2023-01-13T01:46:40.884Z,101568.06
2023-01-13T01:49:22.738Z,101562.94
2023-01-13T01:52:35.075Z,101554.25
2023-01-13T01:55:06.892Z,101554.34
2023-01-13T01:57:46.761Z,101553.47
2023-01-13T02:00:14.648Z,101558.81
2023-01-13T02:02:45.457Z,101548.31
2023-01-13T02:05:13.538Z,101552.78
2023-01-13T02:07:43.694Z,101544.84
2023-01-13T02:10:15.125Z,101536.97
2023-01-13T02:12:45.329Z,101536.16
2023-01-13T02:15:16.805Z,101526.44
2023-01-13T02:18:07.147Z,101526.47
2023-01-13T02:21:02.569Z,101525.78
2023-01-13T02:24:27.889Z,101521.44
2023-01-13T02:27:22.844Z,101520.59
2023-01-13T02:30:23.602Z,101519.69
2023-01-13T02:33:08.819Z,101537.38
2023-01-13T02:36:01.609Z,101541.78
2023-01-13T02:38:41.133Z,101528.53
2023-01-13T02:41:47.071Z,101526.75
2023-01-13T02:44:20.971Z,101520.59
2023-01-13T02:47:06.841Z,101508.28
2023-01-13T02:49:41.467Z,101519.72
2023-01-13T02:52:15.850Z,101510.88
2023-01-13T02:54:47.995Z,101510.94
2023-01-13T02:57:18.269Z,101501.22
2023-01-13T02:59:45.421Z,101505.72
2023-01-13T03:02:19.561Z,101499.56
2023-01-13T03:04:58.263Z,101489.91
2023-01-13T03:08:17.883Z,101501.22
2023-01-13T03:11:00.149Z,101500.53
2023-01-13T03:14:00.887Z,101507.59
2023-01-13T03:16:52.860Z,101505.88
2023-01-13T03:20:14.449Z,101488.41
2023-01-13T03:23:30.245Z,101484.00
2023-01-13T03:26:09.050Z,101491.91
2023-01-13T03:28:57.315Z,101490.19
2023-01-13T03:31:32.270Z,101489.25
2023-01-13T03:34:07.781Z,101484.84
2023-01-13T03:36:38.839Z,101482.19
2023-01-13T03:39:12.852Z,101485.88
2023-01-13T03:41:53.010Z,101494.78
2023-01-13T03:44:33.841Z,101499.16
2023-01-13T03:47:11.563Z,101491.22
2023-01-13T03:50:05.425Z,101497.41
2023-01-13T03:52:41.623Z,101492.13
2023-01-13T03:55:16.380Z,101493.91
2023-01-13T03:58:10.515Z,101497.47
2023-01-13T04:00:47.175Z,101506.25
2023-01-13T04:03:25.731Z,101508.97
2023-01-13T04:06:25.751Z,101508.00
2023-01-13T04:09:27.715Z,101513.28
2023-01-13T04:12:10.740Z,101509.72
2023-01-13T04:14:38.936Z,101512.31
2023-01-13T04:17:06.010Z,101506.97
2023-01-13T04:19:33.119Z,101506.97
2023-01-13T04:22:00.214Z,101507.78
2023-01-13T04:24:27.227Z,101509.59
2023-01-13T04:26:56.448Z,101506.97
2023-01-13T04:29:23.529Z,101502.53
2023-01-13T04:31:50.515Z,101505.13
2023-01-13T04:34:17.490Z,101498.13
2023-01-13T04:36:45.222Z,101495.47
2023-01-13T04:39:12.641Z,101505.13
2023-01-13T04:41:57.775Z,101512.16
2023-01-13T04:44:26.180Z,101506.91
2023-01-13T04:46:53.788Z,101504.25
2023-01-13T04:49:21.309Z,101506.91
2023-01-13T04:51:48.509Z,101501.63
2023-01-13T04:54:16.301Z,101514.03
2023-01-13T04:56:43.703Z,101516.66
2023-01-13T04:59:12.825Z,101515.84
2023-01-13T05:01:40.837Z,101521.16
2023-01-13T05:04:08.603Z,101521.19
2023-01-13T05:06:35.860Z,101514.16
2023-01-13T05:09:03.187Z,101509.81
2023-01-13T05:11:48.542Z,101513.38
2023-01-13T05:14:34.173Z,101503.69
2023-01-13T05:17:01.238Z,101509.03
2023-01-13T05:19:34.897Z,101507.28
2023-01-13T05:22:21.538Z,101509.06
2023-01-13T05:25:06.998Z,101509.94
2023-01-13T05:27:33.978Z,101517.00
2023-01-13T05:30:01.343Z,101508.16
2023-01-13T05:32:28.481Z,101509.03
2023-01-13T05:34:56.492Z,101516.13
2023-01-13T05:37:24.317Z,101517.00
2023-01-13T05:40:10.245Z,101518.72
2023-01-13T05:42:55.665Z,101529.31
2023-01-13T05:45:23.799Z,101512.59
2023-01-13T05:47:50.954Z,101505.56
2023-01-13T05:50:18.855Z,101516.13
2023-01-13T05:52:45.924Z,101523.22
2023-01-13T05:55:12.952Z,101523.22
2023-01-13T05:57:40.119Z,101521.44
2023-01-13T06:00:10.163Z,101534.69
2023-01-13T06:02:40.116Z,101538.19
2023-01-13T06:05:07.806Z,101546.97
2023-01-13T06:07:34.748Z,101549.59
2023-01-13T06:10:01.903Z,101551.34
2023-01-13T06:12:29.097Z,101552.22
2023-01-13T06:14:56.077Z,101546.94
2023-01-13T06:17:23.040Z,101553.09
2023-01-13T06:19:51.133Z,101556.59
2023-01-13T06:22:25.684Z,101553.97
2023-01-13T06:24:54.653Z,101543.34
2023-01-13T06:27:23.167Z,101544.25
2023-01-13T06:29:50.481Z,101546.94
2023-01-13T06:32:42.925Z,101543.38
2023-01-13T06:35:14.991Z,101548.66
2023-01-13T06:37:45.260Z,101561.00
2023-01-13T06:40:15.360Z,101559.34
2023-01-13T06:43:00.980Z,101567.31
2023-01-13T06:45:31.403Z,101573.47
2023-01-13T06:47:59.963Z,101566.41
2023-01-13T06:50:29.005Z,101564.66
2023-01-13T06:52:56.401Z,101559.34
2023-01-13T06:55:23.433Z,101558.41
2023-01-13T06:57:55.859Z,101554.88
2023-01-13T07:00:25.399Z,101560.09
2023-01-13T07:02:53.941Z,101562.75
2023-01-13T07:05:22.565Z,101559.25
2023-01-13T07:07:49.530Z,101563.59
2023-01-13T07:10:22.605Z,101561.78
2023-01-13T07:13:08.517Z,101574.97
2023-01-13T07:15:35.594Z,101569.66
2023-01-13T07:18:03.496Z,101573.16
2023-01-13T07:20:31.030Z,101575.75
2023-01-13T07:22:58.526Z,101574.81
2023-01-13T07:25:25.907Z,101565.13
2023-01-13T07:27:52.871Z,101556.22
2023-01-13T07:30:19.889Z,101568.53
2023-01-13T07:32:46.971Z,101554.44
2023-01-13T07:35:14.037Z,101550.03
2023-01-13T07:37:41.978Z,101566.84
2023-01-13T07:40:10.220Z,101571.28
2023-01-13T07:42:57.523Z,101566.84
2023-01-13T07:45:24.473Z,101563.28
2023-01-13T07:47:53.189Z,101560.59
2023-01-13T07:50:21.765Z,101558.81
2023-01-13T07:52:48.921Z,101553.47
2023-01-13T07:55:16.092Z,101552.56
2023-01-13T07:57:43.499Z,101555.19
2023-01-13T08:00:13.047Z,101556.06
2023-01-13T08:02:40.439Z,101552.50
2023-01-13T08:05:08.568Z,101548.88
2023-01-13T08:07:36.073Z,101548.88
2023-01-13T08:10:04.555Z,101556.75
2023-01-13T08:12:53.577Z,101546.97
2023-01-13T08:15:24.971Z,101543.44
2023-01-13T08:17:52.340Z,101550.47
2023-01-13T08:20:19.452Z,101541.59
2023-01-13T08:22:46.561Z,101546.81
2023-01-13T08:25:14.084Z,101550.25
2023-01-13T08:27:41.337Z,101552.97
2023-01-13T08:30:09.680Z,101569.69
2023-01-13T08:32:36.579Z,101565.22
2023-01-13T08:35:03.646Z,101559.84
2023-01-13T08:37:30.737Z,101565.91
2023-01-13T08:39:57.717Z,101572.03
2023-01-13T08:42:26.555Z,101591.31
2023-01-13T08:44:54.846Z,101611.56
2023-01-13T08:47:22.341Z,101615.13
2023-01-13T08:49:49.409Z,101593.03
2023-01-13T08:52:17.351Z,101599.16
2023-01-13T08:54:44.366Z,101624.75
2023-01-13T08:57:11.370Z,101620.25
2023-01-13T08:59:38.479Z,101621.09
2023-01-13T09:02:17.653Z,101608.78
2023-01-13T09:04:45.626Z,101608.72
2023-01-13T09:07:13.177Z,101618.34
2023-01-13T09:09:40.339Z,101618.28
2023-01-13T09:12:26.735Z,101626.22
2023-01-13T09:14:53.708Z,101618.97
2023-01-13T09:17:20.852Z,101614.69
2023-01-13T09:19:47.875Z,101619.94
2023-01-13T09:22:17.525Z,101617.31
2023-01-13T09:24:45.506Z,101617.19
2023-01-13T09:27:14.986Z,101618.03
2023-01-13T09:29:42.184Z,101601.97
2023-01-13T09:32:13.853Z,101595.81
2023-01-13T09:35:00.053Z,101587.78
2023-01-13T09:37:34.427Z,101589.47
2023-01-13T09:40:02.134Z,101599.13
2023-01-13T09:43:14.231Z,101580.47
2023-01-13T09:45:54.095Z,101578.63
2023-01-13T09:48:29.393Z,101586.47
2023-01-13T09:51:21.030Z,101594.38
2023-01-13T09:53:59.492Z,101605.81
2023-01-13T09:56:27.176Z,101611.09
2023-01-13T09:58:54.511Z,101623.47
2023-01-13T10:01:45.178Z,101624.22
2023-01-13T10:04:15.042Z,101610.03
2023-01-13T10:06:50.376Z,101602.94
2023-01-13T10:09:42.681Z,101601.94
2023-01-13T10:12:40.960Z,101603.78
2023-01-13T10:15:17.275Z,101598.38
2023-01-13T10:18:13.018Z,101591.38
2023-01-13T10:21:04.565Z,101581.53
2023-01-13T10:24:01.926Z,101576.19
2023-01-13T10:27:13.332Z,101576.91
2023-01-13T10:29:40.339Z,101568.88
2023-01-13T10:32:07.288Z,101571.44
2023-01-13T10:34:51.529Z,101565.19
2023-01-13T10:37:27.240Z,101558.91
2023-01-13T10:40:01.667Z,101551.75
2023-01-13T10:42:30.146Z,101547.19
2023-01-13T10:45:00.009Z,101539.13
2023-01-13T10:47:36.570Z,101532.81
2023-01-13T10:50:24.834Z,101547.72
2023-01-13T10:53:00.848Z,101553.03
2023-01-13T10:55:34.465Z,101554.75
2023-01-13T10:58:18.923Z,101557.31
2023-01-13T11:00:46.996Z,101564.41
2023-01-13T11:03:17.065Z,101559.03
2023-01-13T11:05:59.478Z,101558.88
2023-01-13T11:08:31.086Z,101551.72
2023-01-13T11:10:59.949Z,101555.28
2023-01-13T11:13:59.724Z,101548.88
2023-01-13T11:16:28.066Z,101533.13
2023-01-13T11:19:12.130Z,101537.34
2023-01-13T11:21:56.589Z,101529.22
2023-01-13T11:24:40.485Z,101538.88
2023-01-13T11:27:51.136Z,101540.44
2023-01-13T11:30:44.300Z,101528.03
2023-01-13T11:33:14.126Z,101531.38
2023-01-13T11:35:58.945Z,101526.00
2023-01-13T11:38:37.777Z,101512.63
2023-01-13T11:41:39.966Z,101508.94
2023-01-13T11:44:26.532Z,101501.94
2023-01-13T11:46:55.329Z,101502.63
2023-01-13T11:49:29.231Z,101497.16
2023-01-13T11:52:21.938Z,101500.72
2023-01-13T11:55:28.782Z,101496.13
2023-01-13T11:58:50.203Z,101481.94
2023-01-13T12:01:54.494Z,101475.66
2023-01-13T12:05:11.102Z,101472.88
2023-01-13T12:07:59.467Z,101470.03
2023-01-13T12:10:43.886Z,101454.03
2023-01-13T12:13:59.884Z,101466.28
2023-01-13T12:16:30.745Z,101458.13
2023-01-13T12:19:30.227Z,101451.69
2023-01-13T12:22:36.064Z,101446.97
2023-01-13T12:25:20.887Z,101434.69
2023-01-13T12:28:13.223Z,101442.44
2023-01-13T12:30:56.232Z,101434.16
2023-01-13T12:33:58.568Z,101446.28
2023-01-13T12:36:51.992Z,101444.38
2023-01-13T12:40:09.116Z,101427.41
2023-01-13T12:43:19.279Z,101416.66
2023-01-13T12:45:46.286Z,101411.22
2023-01-13T12:48:59.547Z,101417.22
2023-01-13T12:51:36.741Z,101410.00
2023-01-13T12:54:53.870Z,101401.88
2023-01-13T12:57:27.914Z,101408.00
2023-01-13T13:00:04.688Z,101404.56
2023-01-13T13:02:33.634Z,101401.59
2023-01-13T13:05:23.113Z,101397.97
2023-01-13T13:08:05.907Z,101390.66
2023-01-13T13:10:38.069Z,101393.41
2023-01-13T13:13:22.666Z,101378.88
2023-01-13T13:15:51.662Z,101365.47
2023-01-13T13:18:19.563Z,101358.47
2023-01-13T13:21:04.655Z,101360.66
2023-01-13T13:23:45.874Z,101366.50
2023-01-13T13:26:24.964Z,101353.84
2023-01-13T13:29:22.389Z,101351.75
2023-01-13T13:32:25.808Z,101347.00
2023-01-13T13:35:32.065Z,101355.72
2023-01-13T13:39:05.680Z,101343.84
2023-01-13T13:41:55.256Z,101345.41
2023-01-13T13:44:59.709Z,101347.88
2023-01-13T13:47:39.163Z,101351.22
2023-01-13T13:50:20.473Z,101353.78
2023-01-13T13:53:00.486Z,101372.44
2023-01-13T13:55:29.982Z,101368.13
2023-01-13T13:57:59.396Z,101370.28
2023-01-13T14:00:35.071Z,101376.63
2023-01-13T14:03:24.928Z,101381.16
2023-01-13T14:05:59.424Z,101383.28
2023-01-13T14:08:30.058Z,101381.34
2023-01-13T14:10:57.327Z,101388.53
2023-01-13T14:13:33.076Z,101383.69
2023-01-13T14:16:03.701Z,101382.59
2023-01-13T14:18:45.031Z,101383.09
2023-01-13T14:21:30.086Z,101372.91
2023-01-13T14:24:10.704Z,101361.19
2023-01-13T14:26:37.943Z,101366.41
2023-01-13T14:29:06.217Z,101359.13
2023-01-13T14:31:34.635Z,101356.41
2023-01-13T14:34:30.678Z,101358.94
2023-01-13T14:36:51.419Z,101355.28
2023-01-13T14:39:18.295Z,101357.28
2023-01-13T14:41:48.300Z,101365.28
2023-01-13T14:44:24.223Z,101368.81
2023-01-13T14:46:55.121Z,101364.47
2023-01-13T14:49:36.076Z,101360.00
2023-01-13T14:52:09.816Z,101355.63
2023-01-13T14:54:59.999Z,101350.34
2023-01-13T14:57:34.953Z,101351.31
2023-01-13T15:00:14.451Z,101368.25
2023-01-13T15:02:43.998Z,101363.97
2023-01-13T15:05:17.121Z,101362.31
2023-01-13T15:08:11.498Z,101356.22
2023-01-13T15:11:06.581Z,101343.13
2023-01-13T15:13:55.053Z,101350.41
2023-01-13T15:16:25.626Z,101347.00
2023-01-13T15:18:56.442Z,101354.19
2023-01-13T15:21:25.118Z,101372.94
2023-01-13T15:23:52.232Z,101360.69
2023-01-13T15:26:29.760Z,101353.69
2023-01-13T15:28:59.134Z,101358.25
2023-01-13T15:31:28.438Z,101382.34
2023-01-13T15:33:55.814Z,101389.66
2023-01-13T15:36:32.308Z,101375.63
2023-01-13T15:39:01.287Z,101382.00
2023-01-13T15:41:47.390Z,101390.09
2023-01-13T15:44:34.849Z,101395.63
2023-01-13T15:47:06.309Z,101396.72
2023-01-13T15:49:45.447Z,101400.41
2023-01-13T15:52:32.876Z,101419.16
2023-01-13T15:54:59.804Z,101430.88
2023-01-13T15:57:28.703Z,101431.09
2023-01-13T15:59:58.844Z,101428.59
2023-01-13T16:02:26.789Z,101430.63
2023-01-13T16:04:54.520Z,101438.72
2023-01-13T16:07:24.237Z,101430.03
2023-01-13T16:09:52.195Z,101426.59
2023-01-13T16:12:19.226Z,101417.94
2023-01-13T16:14:46.232Z,101418.03
2023-01-13T16:17:20.374Z,101423.38
2023-01-13T16:19:47.442Z,101413.91
2023-01-13T16:22:15.912Z,101405.13
2023-01-13T16:24:43.503Z,101408.75
2023-01-13T16:27:23.519Z,101400.94
2023-01-13T16:29:52.747Z,101410.00
2023-01-13T16:32:21.072Z,101412.78
2023-01-13T16:34:48.595Z,101405.03
2023-01-13T16:37:21.758Z,101389.25
2023-01-13T16:39:48.807Z,101392.88
2023-01-13T16:42:15.732Z,101398.28
2023-01-13T16:44:44.126Z,101403.72
2023-01-13T16:47:17.050Z,101409.13
2023-01-13T16:49:44.831Z,101411.94
2023-01-13T16:52:11.889Z,101414.75
2023-01-13T16:54:38.869Z,101415.75
2023-01-13T16:57:07.584Z,101424.81
2023-01-13T16:59:34.524Z,101422.28
2023-01-13T17:02:02.248Z,101424.09
2023-01-13T17:04:29.292Z,101421.56
2023-01-13T17:07:00.627Z,101428.75
2023-01-13T17:09:29.125Z,101426.31
2023-01-13T17:11:56.537Z,101428.16
2023-01-13T17:14:24.360Z,101428.28
2023-01-13T17:16:54.743Z,101439.94
2023-01-13T17:19:23.351Z,101441.06
2023-01-13T17:21:51.185Z,101447.41
2023-01-13T17:24:18.516Z,101453.66
2023-01-13T17:26:49.337Z,101453.75
2023-01-13T17:29:19.178Z,101451.19
2023-01-13T17:31:46.277Z,101452.16
2023-01-13T17:34:13.784Z,101465.47
2023-01-13T17:36:43.373Z,101473.50
2023-01-13T17:39:24.403Z,101474.53
2023-01-13T17:41:56.028Z,101470.25
2023-01-13T17:44:23.642Z,101482.69
2023-01-13T17:46:51.022Z,101486.34
2023-01-13T17:49:21.342Z,101481.94
2023-01-13T17:51:51.039Z,101487.34
2023-01-13T17:54:18.641Z,101496.22
2023-01-13T17:56:45.837Z,101502.38
2023-01-13T17:59:16.191Z,101497.97
2023-01-13T18:01:43.714Z,101511.28
2023-01-13T18:04:21.369Z,101514.88
2023-01-13T18:06:49.337Z,101518.47
2023-01-13T18:09:17.147Z,101520.41
2023-01-13T18:11:45.625Z,101518.72
2023-01-13T18:14:14.765Z,101526.78
2023-01-13T18:16:42.019Z,101520.66
2023-01-13T18:19:29.269Z,101506.56
2023-01-13T18:22:14.852Z,101520.72
2023-01-13T18:25:00.752Z,101520.81
2023-01-13T18:27:34.027Z,101527.03
2023-01-13T18:30:02.919Z,101524.44
2023-01-13T18:32:33.486Z,101521.81
2023-01-13T18:35:06.471Z,101518.38
2023-01-13T18:37:42.268Z,101526.34
2023-01-13T18:40:13.134Z,101517.66
2023-01-13T18:42:54.710Z,101511.50
2023-01-13T18:45:26.860Z,101526.53
2023-01-13T18:47:56.478Z,101534.50
2023-01-13T18:50:24.722Z,101533.66
2023-01-13T18:52:52.275Z,101535.47
2023-01-13T18:55:19.923Z,101534.63
2023-01-13T18:57:47.362Z,101532.00
2023-01-13T19:00:20.331Z,101535.63
2023-01-13T19:02:50.708Z,101532.19
2023-01-13T19:05:18.320Z,101534.84
2023-01-13T19:07:50.601Z,101536.66
2023-01-13T19:10:18.591Z,101533.16
2023-01-13T19:12:45.776Z,101545.66
2023-01-13T19:15:13.156Z,101550.16
2023-01-13T19:17:40.200Z,101550.22
2023-01-13T19:20:08.395Z,101548.56
2023-01-13T19:22:35.888Z,101549.50
2023-01-13T19:25:06.009Z,101546.88
2023-01-13T19:27:33.916Z,101536.38
2023-01-13T19:30:01.378Z,101531.13
2023-01-13T19:32:30.930Z,101535.59
2023-01-13T19:34:59.649Z,101537.41
2023-01-13T19:37:30.454Z,101527.66
2023-01-13T19:39:59.698Z,101535.59
2023-01-13T19:42:46.917Z,101543.47
2023-01-13T19:45:26.572Z,101548.97
2023-01-13T19:47:58.533Z,101554.38
2023-01-13T19:50:26.216Z,101558.88
2023-01-13T19:52:53.995Z,101558.88
2023-01-13T19:55:21.011Z,101562.38
2023-01-13T19:57:48.464Z,101546.56
2023-01-13T20:00:20.836Z,101557.09
2023-01-13T20:02:51.802Z,101565.09
2023-01-13T20:05:22.628Z,101575.66
2023-01-13T20:07:51.361Z,101567.78
2023-01-13T20:10:20.893Z,101566.94
2023-01-13T20:12:48.353Z,101557.34
2023-01-13T20:15:15.463Z,101566.16
2023-01-13T20:17:42.542Z,101556.47
2023-01-13T20:20:12.041Z,101567.06
2023-01-13T20:22:40.060Z,101583.00
2023-01-13T20:25:08.949Z,101568.91
2023-01-13T20:27:36.478Z,101584.81
2023-01-13T20:30:05.756Z,101587.47
2023-01-13T20:32:32.683Z,101579.53
2023-01-13T20:34:59.878Z,101587.47
2023-01-13T20:37:27.376Z,101587.56
2023-01-13T20:39:55.318Z,101581.41
2023-01-13T20:42:32.300Z,101585.84
2023-01-13T20:45:01.311Z,101583.25
2023-01-13T20:47:29.893Z,101588.63
2023-01-13T20:49:57.265Z,101594.00
2023-01-13T20:52:24.721Z,101601.16
2023-01-13T20:54:51.861Z,101598.56
2023-01-13T20:57:18.922Z,101599.53
2023-01-13T20:59:46.037Z,101603.16
2023-01-13T21:02:16.376Z,101597.06
2023-01-13T21:04:44.104Z,101607.69
2023-01-13T21:07:11.335Z,101606.81
2023-01-13T21:09:38.482Z,101615.63
2023-01-13T21:12:25.126Z,101600.69
2023-01-13T21:15:11.108Z,101616.56
2023-01-13T21:17:56.658Z,101622.72
2023-01-13T21:20:24.880Z,101613.91
2023-01-13T21:22:55.047Z,101611.25
2023-01-13T21:25:22.547Z,101612.97
2023-01-13T21:27:49.657Z,101617.41
2023-01-13T21:30:17.872Z,101608.72
2023-01-13T21:32:45.906Z,101618.50
2023-01-13T21:35:14.767Z,101613.31
2023-01-13T21:37:43.744Z,101617.78
2023-01-13T21:40:15.073Z,101614.28
2023-01-13T21:43:01.079Z,101609.91
2023-01-13T21:45:46.744Z,101609.91
2023-01-13T21:48:13.805Z,101615.19
2023-01-13T21:50:42.322Z,101625.78
2023-01-13T21:53:09.619Z,101631.09
2023-01-13T21:55:36.929Z,101631.13
2023-01-13T21:58:15.575Z,101635.53
2023-01-13T22:00:45.314Z,101640.88
2023-01-13T22:03:15.112Z,101641.75
2023-01-13T22:05:42.276Z,101638.22
2023-01-13T22:08:12.907Z,101640.88
2023-01-13T22:10:57.261Z,101632.97
2023-01-13T22:13:43.406Z,101629.47
2023-01-13T22:16:10.601Z,101632.13
2023-01-13T22:18:37.950Z,101633.94
2023-01-13T22:21:05.468Z,101643.72
2023-01-13T22:23:32.463Z,101641.06
2023-01-13T22:26:04.655Z,101642.84
2023-01-13T22:28:40.842Z,101648.09
2023-01-13T22:31:17.224Z,101644.56
2023-01-13T22:33:48.073Z,101642.84
2023-01-13T22:36:15.693Z,101645.59
2023-01-13T22:38:42.675Z,101649.19
2023-01-13T22:41:11.237Z,101652.75
2023-01-13T22:43:38.962Z,101653.66
2023-01-13T22:46:13.232Z,101654.56
2023-01-13T22:48:41.390Z,101660.72
2023-01-13T22:51:14.771Z,101651.06
2023-01-13T22:53:42.928Z,101653.72
2023-01-13T22:56:21.012Z,101656.38
2023-01-13T22:58:49.094Z,101654.69
2023-01-13T23:01:17.891Z,101662.66
2023-01-13T23:03:48.037Z,101668.91
2023-01-13T23:06:17.098Z,101670.72
2023-01-13T23:08:46.255Z,101658.38
2023-01-13T23:11:16.293Z,101659.25
2023-01-13T23:13:43.875Z,101652.19
2023-01-13T23:16:14.978Z,101645.16
2023-01-13T23:18:42.708Z,101648.69
2023-01-13T23:21:14.080Z,101640.84
2023-01-13T23:23:41.103Z,101653.19
2023-01-13T23:26:09.877Z,101640.00
2023-01-13T23:28:37.745Z,101642.66
2023-01-13T23:31:14.746Z,101645.34
2023-01-13T23:33:43.486Z,101648.88
2023-01-13T23:36:27.517Z,101654.19
2023-01-13T23:38:54.928Z,101654.22
2023-01-13T23:41:24.690Z,101650.66
2023-01-13T23:43:59.446Z,101657.72
2023-01-13T23:46:30.024Z,101669.16
2023-01-13T23:48:57.119Z,101678.06
2023-01-13T23:51:26.308Z,101686.84
2023-01-13T23:53:54.186Z,101676.28
2023-01-13T23:56:24.543Z,101678.91
2023-01-13T23:58:52.211Z,101671.88
